Time;durP1;ratioP1;P1;durP2;ratioP2;P2;SDS_P1;SDS_P2;PMS_P1;PMS_P2;Temp;Humidity;BMP_temperature;BMP_pressure;BME280_temperature;BME280_humidity;BME280_pressure;Samples;Min_cycle;Max_cycle;Signal;HPM_P1;HPM_P2
2022/06/20 00:00:48;;;;;;;4.90;2.85;;;23.90;63.80;;;;;;4995341;28;20192;-76
2022/06/20 00:03:22;;;;;;;4.93;2.70;;;23.90;63.90;;;;;;4997995;28;20822;-77
2022/06/20 00:05:52;;;;;;;6.63;2.80;;;23.90;64.10;;;;;;4998016;28;20196;-76
2022/06/20 00:08:21;;;;;;;6.75;2.90;;;23.90;64.30;;;;;;4994393;28;20200;-76
2022/06/20 00:10:50;;;;;;;5.95;2.92;;;23.90;64.10;;;;;;4997092;28;20192;-75
2022/06/20 00:13:28;;;;;;;9.48;2.88;;;23.90;64.10;;;;;;4999225;28;20322;-75
2022/06/20 00:15:57;;;;;;;7.03;2.70;;;23.90;64.00;;;;;;4995601;28;20199;-75
2022/06/20 00:18:25;;;;;;;9.75;3.25;;;23.90;64.20;;;;;;4995966;28;20200;-75
2022/06/20 00:20:55;;;;;;;7.93;2.90;;;23.90;64.50;;;;;;4998787;28;20204;-75
2022/06/20 00:23:24;;;;;;;6.78;3.20;;;23.80;64.40;;;;;;4999793;28;20200;-75
2022/06/20 00:25:53;;;;;;;8.68;3.10;;;23.80;64.40;;;;;;4999080;28;20204;-75
2022/06/20 00:28:23;;;;;;;7.03;2.92;;;23.80;64.40;;;;;;5000298;28;20197;-75
2022/06/20 00:30:52;;;;;;;6.00;3.17;;;23.80;64.40;;;;;;5001443;28;20684;-75
2022/06/20 00:33:20;;;;;;;7.57;3.05;;;23.80;64.40;;;;;;4998887;28;20197;-75
2022/06/20 00:35:48;;;;;;;6.63;2.70;;;23.80;64.20;;;;;;5000207;28;20262;-75
2022/06/20 00:38:21;;;;;;;7.50;3.30;;;23.70;64.00;;;;;;5003539;28;20196;-75
2022/06/20 00:40:52;;;;;;;5.78;3.05;;;23.70;64.00;;;;;;5001885;28;20185;-75
2022/06/20 00:43:24;;;;;;;5.47;2.88;;;23.70;63.90;;;;;;4999526;28;20213;-75
2022/06/20 00:45:57;;;;;;;5.18;2.90;;;23.70;63.80;;;;;;5001933;28;20200;-75
2022/06/20 00:48:31;;;;;;;6.57;2.80;;;23.70;63.60;;;;;;5002435;28;20246;-76
2022/06/20 00:51:05;;;;;;;6.97;3.20;;;23.60;63.30;;;;;;4997563;28;20202;-74
2022/06/20 00:53:41;;;;;;;5.22;3.13;;;23.60;63.10;;;;;;5002366;28;20394;-75
2022/06/20 00:56:16;;;;;;;7.13;3.10;;;23.60;63.10;;;;;;5004764;28;20199;-75
2022/06/20 00:58:49;;;;;;;4.97;2.92;;;23.60;63.40;;;;;;5002159;28;20184;-75
2022/06/20 01:01:21;;;;;;;5.78;2.72;;;23.60;63.50;;;;;;5001075;28;20204;-75
2022/06/20 01:03:54;;;;;;;6.97;3.17;;;23.50;63.50;;;;;;5001639;28;20280;-75
2022/06/20 01:06:29;;;;;;;9.20;3.65;;;23.50;64.40;;;;;;4995988;28;21188;-75
2022/06/20 01:09:05;;;;;;;6.32;3.40;;;23.50;63.60;;;;;;5000606;28;20195;-77
2022/06/20 01:11:43;;;;;;;9.48;3.45;;;23.40;63.80;;;;;;5002012;28;20193;-74
2022/06/20 01:14:27;;;;;;;10.73;3.25;;;23.40;64.70;;;;;;5002653;28;20195;-74
2022/06/20 01:16:58;;;;;;;4.93;3.10;;;23.30;64.10;;;;;;4999564;28;20210;-75
2022/06/20 01:19:47;;;;;;;6.63;3.42;;;23.30;64.20;;;;;;5001615;28;20271;-74
2022/06/20 01:22:41;;;;;;;7.22;3.40;;;23.20;64.50;;;;;;5002740;28;20228;-74
2022/06/20 01:25:41;;;;;;;7.47;3.17;;;23.20;64.70;;;;;;5003239;28;20199;-74
2022/06/20 01:28:16;;;;;;;5.00;3.03;;;23.20;64.70;;;;;;4998935;28;20192;-73
2022/06/20 01:30:48;;;;;;;7.53;3.85;;;23.20;64.80;;;;;;5001212;28;20444;-75
2022/06/20 01:33:19;;;;;;;6.95;3.03;;;23.10;65.40;;;;;;5001755;28;20192;-75
2022/06/20 01:38:36;;;;;;;6.15;3.45;;;23.10;65.20;;;;;;4994829;28;20192;-76
2022/06/20 01:43:54;;;;;;;5.53;3.10;;;23.00;65.30;;;;;;4994264;28;20212;-76
2022/06/20 01:46:28;;;;;;;6.68;3.33;;;23.00;65.50;;;;;;4996767;28;20199;-76
2022/06/20 01:49:00;;;;;;;6.90;3.33;;;23.00;65.70;;;;;;5001868;28;20200;-75
2022/06/20 01:51:40;;;;;;;10.18;3.10;;;23.00;65.80;;;;;;5000206;28;20847;-76
2022/06/20 01:54:10;;;;;;;8.65;3.20;;;22.90;66.00;;;;;;4998891;28;20908;-76
2022/06/20 01:56:40;;;;;;;8.55;3.08;;;22.90;66.10;;;;;;5001392;28;20208;-76
2022/06/20 01:59:15;;;;;;;5.40;3.70;;;22.90;66.10;;;;;;5001494;28;20203;-74
2022/06/20 02:01:43;;;;;;;5.57;3.55;;;22.80;66.10;;;;;;5001443;28;20184;-74
2022/06/20 02:04:16;;;;;;;6.43;3.13;;;22.90;66.30;;;;;;5001670;28;20227;-76
2022/06/20 02:06:47;;;;;;;7.03;3.47;;;22.80;66.40;;;;;;4999440;28;20721;-76
2022/06/20 02:09:16;;;;;;;7.13;3.70;;;22.80;66.50;;;;;;4996124;28;20200;-76
2022/06/20 02:11:47;;;;;;;6.97;3.00;;;22.80;66.70;;;;;;5001274;28;20188;-76
2022/06/20 02:14:21;;;;;;;5.72;2.75;;;22.80;66.80;;;;;;5000378;28;20196;-77
2022/06/20 02:16:55;;;;;;;5.25;2.80;;;22.70;66.90;;;;;;4999697;28;20212;-76
2022/06/20 02:19:30;;;;;;;4.90;3.08;;;22.70;67.00;;;;;;5000975;28;20188;-76
2022/06/20 02:22:01;;;;;;;5.65;2.88;;;22.70;67.30;;;;;;4999577;28;20203;-76
2022/06/20 02:24:35;;;;;;;6.82;3.33;;;22.70;67.50;;;;;;5001645;28;20203;-76
2022/06/20 02:27:07;;;;;;;7.13;3.13;;;22.70;67.60;;;;;;5000048;28;20199;-76
2022/06/20 02:29:36;;;;;;;8.02;3.28;;;22.70;67.70;;;;;;4994981;28;20200;-76
2022/06/20 02:32:09;;;;;;;7.20;3.42;;;22.60;67.60;;;;;;4997967;28;20283;-76
2022/06/20 02:34:38;;;;;;;6.88;3.28;;;22.70;67.90;;;;;;5000473;28;20196;-75
2022/06/20 02:37:10;;;;;;;7.90;2.90;;;22.60;67.90;;;;;;4998447;28;20193;-75
2022/06/20 02:39:40;;;;;;;5.47;2.67;;;22.60;68.10;;;;;;4995383;28;20208;-75
2022/06/20 02:42:13;;;;;;;5.35;3.20;;;22.60;68.40;;;;;;5003038;28;20267;-75
2022/06/20 02:44:45;;;;;;;3.78;2.58;;;22.50;68.60;;;;;;4999791;28;20193;-75
2022/06/20 02:47:15;;;;;;;5.00;2.92;;;22.60;68.90;;;;;;4997353;28;20188;-75
2022/06/20 02:49:46;;;;;;;6.43;3.25;;;22.50;68.90;;;;;;4998438;28;20210;-77
2022/06/20 02:52:18;;;;;;;7.82;2.97;;;22.50;69.00;;;;;;4998286;28;20209;-75
2022/06/20 02:54:49;;;;;;;4.72;2.72;;;22.50;69.20;;;;;;4997277;28;20220;-74
2022/06/20 02:57:26;;;;;;;7.22;3.70;;;22.50;69.40;;;;;;4998572;28;20199;-75
2022/06/20 02:59:57;;;;;;;5.28;3.13;;;22.50;69.50;;;;;;5000784;28;20188;-74
2022/06/20 03:02:30;;;;;;;5.82;3.05;;;22.40;69.50;;;;;;4998694;28;20208;-75
2022/06/20 03:05:01;;;;;;;7.20;3.15;;;22.40;69.50;;;;;;4999895;28;20536;-75
2022/06/20 03:07:33;;;;;;;7.78;3.80;;;22.40;69.60;;;;;;5000519;28;20184;-74
2022/06/20 03:10:19;;;;;;;6.38;3.42;;;22.50;69.90;;;;;;4998608;28;20185;-75
2022/06/20 03:12:48;;;;;;;9.13;4.13;;;22.50;70.10;;;;;;4995823;28;20219;-74
2022/06/20 03:15:18;;;;;;;6.05;3.58;;;22.40;70.00;;;;;;4997448;28;20861;-74
2022/06/20 03:17:48;;;;;;;9.63;3.58;;;22.40;70.30;;;;;;4997916;28;20403;-75
2022/06/20 03:20:20;;;;;;;10.23;3.80;;;22.50;70.50;;;;;;5000629;28;20196;-75
2022/06/20 03:22:54;;;;;;;6.30;3.90;;;22.50;70.70;;;;;;4999764;28;20188;-74
2022/06/20 03:25:23;;;;;;;6.05;3.83;;;22.50;70.80;;;;;;4997953;28;20659;-74
2022/06/20 03:27:52;;;;;;;9.18;4.38;;;22.50;70.90;;;;;;4997912;28;20192;-76
2022/06/20 03:30:30;;;;;;;7.70;4.50;;;22.50;71.90;;;;;;4995135;28;20197;-75
2022/06/20 03:32:59;;;;;;;8.82;4.30;;;22.50;71.60;;;;;;5000042;28;20199;-75
2022/06/20 03:35:30;;;;;;;12.20;4.78;;;22.60;71.80;;;;;;4998496;28;20730;-75
2022/06/20 03:37:59;;;;;;;9.23;4.47;;;22.60;72.00;;;;;;4993429;28;20283;-75
2022/06/20 03:40:28;;;;;;;11.23;4.28;;;22.60;72.00;;;;;;4997462;28;20191;-75
2022/06/20 03:42:58;;;;;;;8.00;4.55;;;22.70;72.30;;;;;;4994945;28;20742;-75
2022/06/20 03:45:32;;;;;;;10.32;4.72;;;22.60;72.40;;;;;;4996470;28;20184;-75
2022/06/20 03:48:05;;;;;;;7.63;4.25;;;22.60;72.50;;;;;;4994094;28;20188;-75
2022/06/20 03:50:36;;;;;;;9.13;4.65;;;22.60;72.50;;;;;;4999134;28;20180;-75
2022/06/20 03:53:11;;;;;;;10.52;4.40;;;22.60;72.60;;;;;;5000496;28;20202;-75
2022/06/20 03:55:53;;;;;;;8.50;4.45;;;22.70;72.70;;;;;;4997490;28;20192;-75
2022/06/20 03:58:29;;;;;;;10.02;4.43;;;22.70;72.70;;;;;;4997275;28;20193;-75
2022/06/20 04:01:03;;;;;;;7.90;3.70;;;22.70;72.70;;;;;;4996254;28;20246;-76
2022/06/20 04:03:40;;;;;;;10.40;4.80;;;22.80;72.80;;;;;;5004109;28;20208;-74
2022/06/20 04:06:13;;;;;;;8.55;3.88;;;22.80;72.80;;;;;;4999679;28;20276;-74
2022/06/20 04:11:37;;;;;;;7.75;4.43;;;22.90;73.00;;;;;;5003204;28;20184;-75
2022/06/20 04:14:13;;;;;;;12.70;5.05;;;23.00;73.30;;;;;;5001707;28;20258;-74
2022/06/20 04:16:47;;;;;;;9.75;4.55;;;23.00;73.90;;;;;;5000918;28;20196;-74
2022/06/20 04:19:19;;;;;;;9.25;5.38;;;23.00;74.40;;;;;;5001507;28;20195;-74
2022/06/20 04:21:52;;;;;;;10.23;6.53;;;23.00;74.50;;;;;;5004018;28;20191;-74
2022/06/20 04:24:25;;;;;;;11.85;7.10;;;23.00;74.10;;;;;;5001521;28;20308;-75
2022/06/20 04:26:57;;;;;;;30.15;13.55;;;23.10;73.90;;;;;;5003948;28;20192;-74
2022/06/20 04:29:32;;;;;;;20.90;10.60;;;23.10;73.80;;;;;;5004336;28;20227;-75
2022/06/20 04:32:09;;;;;;;19.58;8.52;;;23.10;73.90;;;;;;4998344;28;20207;-74
2022/06/20 04:34:40;;;;;;;14.45;7.00;;;23.20;73.70;;;;;;5002339;28;20197;-74
2022/06/20 04:37:17;;;;;;;13.40;7.13;;;23.20;73.80;;;;;;5003028;28;20188;-75
2022/06/20 04:39:51;;;;;;;15.52;6.80;;;23.20;73.50;;;;;;5001735;28;20193;-74
2022/06/20 04:42:37;;;;;;;12.73;6.55;;;23.30;73.50;;;;;;4996811;28;20184;-74
2022/06/20 04:45:12;;;;;;;15.45;6.68;;;23.30;73.40;;;;;;5001675;28;20204;-75
2022/06/20 04:47:46;;;;;;;9.35;5.50;;;23.30;73.10;;;;;;4997750;28;20190;-74
2022/06/20 04:50:17;;;;;;;11.18;5.63;;;23.30;73.00;;;;;;5000459;28;20192;-74
2022/06/20 04:52:48;;;;;;;11.63;5.18;;;23.30;72.80;;;;;;5004785;28;21015;-74
2022/06/20 04:55:19;;;;;;;11.20;5.55;;;23.30;72.70;;;;;;5000870;28;20311;-74
2022/06/20 04:57:52;;;;;;;14.73;5.63;;;23.40;72.70;;;;;;4995788;28;20227;-74
2022/06/20 05:00:22;;;;;;;10.10;5.53;;;23.40;72.50;;;;;;4992870;28;20207;-74
2022/06/20 05:02:56;;;;;;;7.72;4.60;;;23.40;72.30;;;;;;4994739;28;20196;-76
2022/06/20 05:05:31;;;;;;;11.02;5.50;;;23.50;72.10;;;;;;5001333;28;20310;-74
2022/06/20 05:08:02;;;;;;;9.40;4.47;;;23.50;71.80;;;;;;5002143;28;20196;-74
2022/06/20 05:10:36;;;;;;;10.13;4.90;;;23.60;71.20;;;;;;4997832;28;20197;-75
2022/06/20 05:13:11;;;;;;;8.77;4.60;;;23.60;70.80;;;;;;5001934;28;20196;-75
2022/06/20 05:15:43;;;;;;;9.82;4.55;;;23.60;70.70;;;;;;4998198;28;20200;-74
2022/06/20 05:18:23;;;;;;;10.80;4.53;;;23.60;70.30;;;;;;4996761;28;20247;-75
2022/06/20 05:20:58;;;;;;;6.65;3.72;;;23.70;70.10;;;;;;4995098;28;20189;-73
2022/06/20 05:23:33;;;;;;;7.72;3.20;;;23.70;70.10;;;;;;4994964;28;20198;-76
2022/06/20 05:26:04;;;;;;;6.25;3.20;;;23.80;69.40;;;;;;5002821;28;20216;-75
2022/06/20 05:28:34;;;;;;;5.10;2.85;;;23.80;69.00;;;;;;5001422;28;20184;-75
2022/06/20 05:31:03;;;;;;;6.55;2.92;;;23.80;69.00;;;;;;4994531;28;20201;-74
2022/06/20 05:33:38;;;;;;;7.20;2.75;;;23.90;69.10;;;;;;5003164;28;21025;-74
2022/06/20 05:36:12;;;;;;;6.20;2.30;;;24.00;69.00;;;;;;5002849;28;20203;-74
2022/06/20 05:38:46;;;;;;;5.47;2.53;;;24.00;68.70;;;;;;5001694;28;20192;-75
2022/06/20 05:41:16;;;;;;;7.75;2.28;;;24.10;68.30;;;;;;4998029;28;20684;-75
2022/06/20 05:43:45;;;;;;;3.60;1.80;;;24.10;67.90;;;;;;5004297;28;20671;-75
2022/06/20 05:46:23;;;;;;;4.85;2.17;;;24.10;67.90;;;;;;5005123;28;20222;-75
2022/06/20 05:48:54;;;;;;;3.30;1.90;;;24.20;67.00;;;;;;4999744;28;20198;-75
2022/06/20 05:51:25;;;;;;;5.10;2.33;;;24.30;67.10;;;;;;4998480;28;20817;-75
2022/06/20 05:53:58;;;;;;;5.95;2.13;;;24.30;67.20;;;;;;4999132;28;20220;-73
2022/06/20 05:56:29;;;;;;;5.85;1.80;;;24.30;66.60;;;;;;5004279;28;20202;-73
2022/06/20 05:59:00;;;;;;;3.47;1.63;;;24.40;66.10;;;;;;4995368;28;20218;-74
2022/06/20 06:01:31;;;;;;;6.15;1.92;;;24.50;66.30;;;;;;5003441;28;20196;-74
2022/06/20 06:04:08;;;;;;;4.35;1.80;;;24.50;65.80;;;;;;5003792;28;20184;-74
2022/06/20 06:06:41;;;;;;;3.00;1.80;;;24.60;65.50;;;;;;4999111;28;20744;-75
2022/06/20 06:09:18;;;;;;;3.30;2.08;;;24.60;65.60;;;;;;5000027;28;20192;-76
2022/06/20 06:11:54;;;;;;;3.10;1.50;;;24.60;64.40;;;;;;5004176;28;20192;-76
2022/06/20 06:14:27;;;;;;;2.40;1.40;;;24.70;64.00;;;;;;4995119;28;20196;-75
2022/06/20 06:17:01;;;;;;;6.93;1.90;;;24.80;64.20;;;;;;5000085;28;20188;-75
2022/06/20 06:19:53;;;;;;;4.15;2.25;;;24.80;64.40;;;;;;5004165;28;20189;-75
2022/06/20 06:22:25;;;;;;;5.72;1.92;;;24.90;64.40;;;;;;4998409;28;20722;-75
2022/06/20 06:24:57;;;;;;;7.45;1.85;;;25.00;64.20;;;;;;5002295;28;20216;-75
2022/06/20 06:27:31;;;;;;;3.60;1.92;;;25.00;64.10;;;;;;4998726;28;20748;-75
2022/06/20 06:30:02;;;;;;;2.55;1.70;;;25.10;63.80;;;;;;5003473;28;20193;-76
2022/06/20 06:32:34;;;;;;;2.75;1.48;;;25.20;63.30;;;;;;5003147;28;20571;-74
2022/06/20 06:35:15;;;;;;;3.60;1.73;;;25.20;63.30;;;;;;4997482;28;20185;-75
2022/06/20 06:37:51;;;;;;;2.72;1.50;;;25.30;62.60;;;;;;5001522;28;20199;-75
2022/06/20 06:40:30;;;;;;;3.38;1.77;;;25.40;62.80;;;;;;5004809;28;20292;-74
2022/06/20 06:42:59;;;;;;;6.05;1.92;;;25.40;63.10;;;;;;5004470;28;20865;-75
2022/06/20 06:45:31;;;;;;;2.80;1.48;;;25.50;63.30;;;;;;5003071;28;20425;-75
2022/06/20 06:48:05;;;;;;;4.70;1.60;;;25.60;63.50;;;;;;4999422;28;20192;-74
2022/06/20 06:50:40;;;;;;;2.60;1.40;;;25.60;62.90;;;;;;5004409;28;20220;-74
2022/06/20 06:53:17;;;;;;;4.05;1.50;;;25.70;62.80;;;;;;5003401;28;20265;-76
2022/06/20 06:55:50;;;;;;;3.78;1.30;;;25.80;62.30;;;;;;5003060;28;20210;-77
2022/06/20 06:58:25;;;;;;;5.05;1.55;;;25.80;61.30;;;;;;5004085;28;20195;-74
2022/06/20 07:00:56;;;;;;;4.50;1.60;;;25.90;61.60;;;;;;5002941;28;20194;-75
2022/06/20 07:03:28;;;;;;;6.68;1.63;;;26.00;61.70;;;;;;5001682;28;20187;-74
2022/06/20 07:06:02;;;;;;;3.83;1.80;;;26.00;61.10;;;;;;5002378;28;20694;-75
2022/06/20 07:08:55;;;;;;;6.95;1.58;;;26.10;61.20;;;;;;5001534;28;20196;-75
2022/06/20 07:11:26;;;;;;;5.80;1.75;;;26.10;60.80;;;;;;5000197;28;20200;-74
2022/06/20 07:14:02;;;;;;;2.85;1.70;;;26.20;60.80;;;;;;4997378;28;20196;-76
2022/06/20 07:16:37;;;;;;;2.38;1.40;;;26.30;60.90;;;;;;4995277;28;20578;-74
2022/06/20 07:19:27;;;;;;;3.75;1.65;;;26.40;60.80;;;;;;4996471;28;20191;-76
2022/06/20 07:22:00;;;;;;;4.25;1.92;;;26.50;60.80;;;;;;4996283;28;20192;-76
2022/06/20 07:24:32;;;;;;;4.40;1.55;;;26.50;60.70;;;;;;4995784;28;20705;-74
2022/06/20 07:27:07;;;;;;;7.30;1.75;;;26.60;60.40;;;;;;5000348;28;20204;-75
2022/06/20 07:29:46;;;;;;;4.78;2.03;;;26.60;59.90;;;;;;5000482;28;20196;-74
2022/06/20 07:32:18;;;;;;;4.95;1.90;;;26.60;59.60;;;;;;5001460;28;20200;-74
2022/06/20 07:34:52;;;;;;;6.13;2.10;;;26.70;59.40;;;;;;5001191;28;20677;-75
2022/06/20 07:37:27;;;;;;;3.80;2.13;;;26.70;59.60;;;;;;5001851;28;20188;-74
2022/06/20 07:40:00;;;;;;;4.35;1.67;;;26.80;59.50;;;;;;5001262;28;20200;-74
2022/06/20 07:42:48;;;;;;;9.65;2.38;;;26.80;59.10;;;;;;4997993;28;20939;-74
2022/06/20 07:45:20;;;;;;;6.85;1.85;;;26.80;58.30;;;;;;4997243;28;20222;-76
2022/06/20 07:47:55;;;;;;;4.45;1.40;;;26.80;58.60;;;;;;4996574;28;20194;-77
2022/06/20 07:50:32;;;;;;;5.15;1.88;;;26.90;58.70;;;;;;4989754;28;20188;-75
2022/06/20 07:53:10;;;;;;;3.47;1.70;;;26.90;58.90;;;;;;4981237;28;20287;-76
2022/06/20 07:55:45;;;;;;;6.70;1.70;;;26.90;58.40;;;;;;4980652;28;20208;-77
2022/06/20 07:58:20;;;;;;;3.38;1.63;;;27.00;58.10;;;;;;4970708;28;20202;-75
2022/06/20 08:00:54;;;;;;;3.75;1.92;;;27.10;58.10;;;;;;4975302;28;20821;-75
2022/06/20 08:03:27;;;;;;;4.50;1.83;;;27.10;57.50;;;;;;4974826;28;20473;-76
2022/06/20 08:06:00;;;;;;;5.28;1.63;;;27.20;57.80;;;;;;4973402;28;20224;-76
2022/06/20 08:12:18;;;;;;;4.93;1.83;;;27.20;57.50;;;;;;4969742;28;20933;-75
2022/06/20 08:14:52;;;;;;;4.03;1.67;;;27.20;57.80;;;;;;4979224;28;20229;-75
2022/06/20 08:17:22;;;;;;;7.65;2.35;;;27.30;58.10;;;;;;4982056;28;20204;-75
2022/06/20 08:19:51;;;;;;;3.70;1.60;;;27.30;58.30;;;;;;4979627;28;20197;-75
2022/06/20 08:22:36;;;;;;;3.42;1.45;;;27.40;58.50;;;;;;4977498;28;20189;-75
2022/06/20 08:25:10;;;;;;;3.53;1.40;;;27.40;57.90;;;;;;4980119;28;20196;-75
2022/06/20 08:27:45;;;;;;;2.13;1.52;;;27.50;57.90;;;;;;4978036;28;20220;-75
2022/06/20 08:30:16;;;;;;;3.97;1.50;;;27.60;57.80;;;;;;4977757;28;20211;-76
2022/06/20 08:32:55;;;;;;;7.20;1.58;;;27.70;57.80;;;;;;4978987;28;20185;-76
2022/06/20 08:35:31;;;;;;;6.55;1.75;;;27.70;57.50;;;;;;4979159;28;20198;-76
2022/06/20 08:38:07;;;;;;;4.55;1.65;;;27.80;57.50;;;;;;4972355;28;20194;-76
2022/06/20 08:41:08;;;;;;;2.67;1.30;;;27.70;56.50;;;;;;4979633;28;20193;-77
2022/06/20 08:44:19;;;;;;;2.97;1.60;;;27.80;56.90;;;;;;4975063;28;20201;-77
2022/06/20 08:47:20;;;;;;;3.35;1.70;;;27.90;57.30;;;;;;4975187;28;20730;-76
2022/06/20 08:50:19;;;;;;;2.88;1.80;;;27.90;57.10;;;;;;4974409;28;20207;-76
2022/06/20 08:53:41;;;;;;;4.38;1.65;;;27.90;56.60;;;;;;4978772;28;20236;-76
2022/06/20 08:56:31;;;;;;;4.65;1.60;;;28.00;56.80;;;;;;4984704;28;20275;-77
2022/06/20 08:59:10;;;;;;;2.92;1.42;;;28.10;57.00;;;;;;4976153;28;20832;-75
2022/06/20 09:01:48;;;;;;;4.75;1.83;;;28.20;57.10;;;;;;4968459;28;20209;-76
2022/06/20 09:04:40;;;;;;;4.45;1.85;;;28.30;56.60;;;;;;4977652;28;20974;-75
2022/06/20 09:07:39;;;;;;;2.80;1.80;;;28.40;56.80;;;;;;4978922;28;20959;-77
2022/06/20 09:10:35;;;;;;;4.43;1.70;;;28.50;57.10;;;;;;4973849;28;20201;-76
2022/06/20 09:13:22;;;;;;;4.75;1.60;;;28.60;56.30;;;;;;4956858;28;20694;-75
2022/06/20 09:16:00;;;;;;;2.97;1.70;;;28.60;56.60;;;;;;4982347;28;20579;-75
2022/06/20 09:18:46;;;;;;;3.38;1.70;;;28.70;56.70;;;;;;4980056;28;20196;-75
2022/06/20 09:21:23;;;;;;;4.25;1.58;;;28.70;56.90;;;;;;4977229;28;20204;-77
2022/06/20 09:24:21;;;;;;;5.13;1.88;;;28.70;57.00;;;;;;4983514;28;20205;-77
2022/06/20 09:27:00;;;;;;;4.50;1.48;;;28.80;57.20;;;;;;4977504;28;20209;-77
2022/06/20 09:29:52;;;;;;;4.07;1.63;;;28.80;56.40;;;;;;4982029;28;20192;-79
2022/06/20 09:32:53;;;;;;;2.22;1.40;;;28.80;55.00;;;;;;4976825;28;20200;-76
2022/06/20 09:35:45;;;;;;;3.50;1.52;;;28.80;55.10;;;;;;4934081;28;20918;-75
2022/06/20 09:38:32;;;;;;;3.72;1.70;;;28.80;54.90;;;;;;4972392;28;20734;-76
2022/06/20 09:41:08;;;;;;;4.70;1.40;;;28.80;54.60;;;;;;4979015;28;21128;-76
2022/06/20 09:43:45;;;;;;;4.68;1.88;;;28.80;54.90;;;;;;4979371;28;20189;-76
2022/06/20 09:46:20;;;;;;;7.40;1.70;;;28.80;54.30;;;;;;4980901;28;20209;-76
2022/06/20 09:48:56;;;;;;;5.72;1.63;;;28.70;54.00;;;;;;4981839;28;20192;-77
2022/06/20 09:51:34;;;;;;;2.92;1.63;;;28.80;54.40;;;;;;4984627;28;20192;-76
2022/06/20 09:54:13;;;;;;;3.42;1.65;;;28.90;54.60;;;;;;4984934;28;20220;-76
2022/06/20 09:56:50;;;;;;;3.95;1.80;;;29.00;54.50;;;;;;4985194;28;20460;-78
2022/06/20 09:59:29;;;;;;;2.08;1.67;;;29.00;54.60;;;;;;4981172;28;20224;-76
2022/06/20 10:02:10;;;;;;;4.20;1.85;;;29.10;54.30;;;;;;4984294;28;20193;-77
2022/06/20 10:04:47;;;;;;;2.42;1.52;;;29.20;54.30;;;;;;4968297;28;20181;-77
2022/06/20 10:07:45;;;;;;;1.98;1.50;;;29.30;54.40;;;;;;4982052;28;20604;-76
2022/06/20 10:10:20;;;;;;;2.95;1.70;;;29.40;54.00;;;;;;4979677;28;20331;-77
2022/06/20 10:12:54;;;;;;;2.33;1.60;;;29.40;54.00;;;;;;4983256;28;20199;-76
2022/06/20 10:15:39;;;;;;;3.45;1.50;;;29.50;53.90;;;;;;4979684;28;20185;-78
2022/06/20 10:18:21;;;;;;;6.47;2.13;;;29.50;53.70;;;;;;4979588;28;20229;-77
2022/06/20 10:20:55;;;;;;;3.50;1.60;;;29.60;53.10;;;;;;4983496;28;20196;-76
2022/06/20 10:23:48;;;;;;;2.60;1.65;;;29.60;53.30;;;;;;4984574;28;20195;-77
2022/06/20 10:26:32;;;;;;;3.15;1.50;;;29.60;52.30;;;;;;4987226;28;20207;-78
2022/06/20 10:29:10;;;;;;;7.57;2.05;;;29.70;52.60;;;;;;4978361;28;20189;-78
2022/06/20 10:31:43;;;;;;;2.58;1.67;;;29.70;52.50;;;;;;4978838;28;20188;-77
2022/06/20 10:34:21;;;;;;;2.58;1.70;;;29.70;52.90;;;;;;4977935;28;20200;-78
2022/06/20 10:36:52;;;;;;;8.43;1.73;;;29.80;53.10;;;;;;4982189;28;20192;-75
2022/06/20 10:39:36;;;;;;;6.40;1.85;;;29.90;52.90;;;;;;4983693;28;20189;-76
2022/06/20 10:42:20;;;;;;;2.88;1.70;;;30.00;52.10;;;;;;4984463;28;20197;-77
2022/06/20 10:45:15;;;;;;;3.00;1.83;;;30.00;51.40;;;;;;4980656;28;20193;-76
2022/06/20 10:47:52;;;;;;;2.85;1.40;;;30.10;51.20;;;;;;4970302;28;20846;-77
2022/06/20 10:50:32;;;;;;;3.30;1.75;;;30.10;51.60;;;;;;4978966;28;20227;-77
2022/06/20 10:53:12;;;;;;;6.80;1.70;;;30.10;51.50;;;;;;4980863;28;20244;-76
2022/06/20 10:55:51;;;;;;;2.97;1.60;;;30.20;51.50;;;;;;4980904;28;20208;-76
2022/06/20 10:58:42;;;;;;;3.75;1.70;;;30.30;50.80;;;;;;4981045;28;20193;-78
2022/06/20 11:01:18;;;;;;;2.22;1.60;;;30.40;51.10;;;;;;4982882;28;20193;-77
2022/06/20 11:04:13;;;;;;;2.70;1.63;;;30.40;50.80;;;;;;4979696;28;20192;-80
2022/06/20 11:06:55;;;;;;;2.38;1.60;;;30.50;50.80;;;;;;4982349;28;20204;-78
2022/06/20 11:09:33;;;;;;;3.55;1.48;;;30.60;50.70;;;;;;4983646;28;20592;-79
2022/06/20 11:12:11;;;;;;;2.03;1.42;;;30.70;49.90;;;;;;4980313;28;20201;-77
2022/06/20 11:14:47;;;;;;;2.78;1.58;;;30.80;50.00;;;;;;4982272;28;20559;-78
2022/06/20 11:17:26;;;;;;;6.95;1.80;;;30.80;49.70;;;;;;4990109;28;20185;-79
2022/06/20 11:20:02;;;;;;;5.20;1.50;;;30.80;48.80;;;;;;4976951;28;20247;-77
2022/06/20 11:22:41;;;;;;;2.40;1.70;;;30.70;49.20;;;;;;4983319;28;20284;-78
2022/06/20 11:25:23;;;;;;;3.13;1.90;;;30.70;49.40;;;;;;4980982;28;20194;-77
2022/06/20 11:28:22;;;;;;;3.55;1.70;;;30.80;50.10;;;;;;4983277;28;20638;-77
2022/06/20 11:30:59;;;;;;;5.28;2.03;;;30.80;50.10;;;;;;4968011;28;20194;-77
2022/06/20 11:34:04;;;;;;;2.78;1.52;;;30.80;50.00;;;;;;4980410;28;20196;-77
2022/06/20 11:36:42;;;;;;;3.17;1.65;;;30.90;50.30;;;;;;4980585;28;20706;-78
2022/06/20 11:39:23;;;;;;;3.70;1.90;;;31.00;50.20;;;;;;4981870;28;20201;-78
2022/06/20 11:41:54;;;;;;;2.30;1.70;;;31.10;50.20;;;;;;4982834;28;20287;-79
2022/06/20 11:44:50;;;;;;;3.60;1.85;;;31.10;49.80;;;;;;4978322;28;20606;-78
2022/06/20 11:47:42;;;;;;;3.22;2.08;;;31.20;50.10;;;;;;4981730;28;20319;-78
2022/06/20 11:50:32;;;;;;;7.90;1.80;;;31.30;50.00;;;;;;4976919;28;20196;-78
2022/06/20 11:53:28;;;;;;;8.85;2.22;;;31.40;49.90;;;;;;4981426;28;20976;-77
2022/06/20 11:56:05;;;;;;;2.35;1.70;;;31.50;49.90;;;;;;4978318;28;20645;-79
2022/06/20 11:59:23;;;;;;;3.20;2.00;;;31.60;50.00;;;;;;4977766;28;20201;-81
2022/06/20 12:01:59;;;;;;;3.38;1.80;;;31.70;50.00;;;;;;4973488;28;20275;-78
2022/06/20 12:04:36;;;;;;;2.75;2.03;;;31.60;49.10;;;;;;4979296;28;20181;-78
2022/06/20 12:07:33;;;;;;;5.22;1.90;;;31.50;49.50;;;;;;4976157;28;20228;-77
2022/06/20 12:10:07;;;;;;;3.28;2.03;;;31.40;49.60;;;;;;4980907;28;20287;-77
2022/06/20 12:12:45;;;;;;;4.60;2.10;;;31.40;49.60;;;;;;4978329;28;20189;-79
2022/06/20 12:15:29;;;;;;;3.90;2.13;;;31.30;48.80;;;;;;4980718;28;20292;-78
2022/06/20 12:18:22;;;;;;;3.03;1.90;;;31.40;48.80;;;;;;4981386;28;20613;-79
2022/06/20 12:23:48;;;;;;;6.15;2.20;;;31.50;49.20;;;;;;4979505;28;20198;-82
2022/06/20 12:26:21;;;;;;;3.80;2.00;;;31.60;49.40;;;;;;4990401;28;20205;-79
2022/06/20 12:28:53;;;;;;;2.90;1.60;;;31.70;49.20;;;;;;4984009;28;20208;-78
2022/06/20 12:31:23;;;;;;;4.07;2.08;;;31.80;49.00;;;;;;4986531;28;20621;-80
2022/06/20 12:33:56;;;;;;;4.30;1.77;;;32.00;49.20;;;;;;4983435;28;20212;-78
2022/06/20 12:36:31;;;;;;;5.70;1.70;;;32.00;48.90;;;;;;4978995;28;20228;-78
2022/06/20 12:39:04;;;;;;;2.30;1.65;;;32.10;49.30;;;;;;4980941;28;20271;-78
2022/06/20 12:41:38;;;;;;;2.83;1.70;;;32.30;49.20;;;;;;4982887;28;20687;-79
2022/06/20 12:44:30;;;;;;;2.45;1.83;;;32.50;49.10;;;;;;4982552;28;20200;-78
2022/06/20 12:47:18;;;;;;;3.65;1.55;;;32.70;49.10;;;;;;4982621;28;20995;-78
2022/06/20 12:50:18;;;;;;;5.47;1.90;;;32.90;48.90;;;;;;4979970;28;20231;-77
2022/06/20 12:53:02;;;;;;;2.83;1.80;;;33.30;48.90;;;;;;4982664;28;20185;-79
2022/06/20 12:55:49;;;;;;;1.92;1.70;;;33.50;48.40;;;;;;4983362;28;20189;-78
2022/06/20 12:58:36;;;;;;;1.98;1.45;;;33.70;47.60;;;;;;4983516;28;20194;-78
2022/06/20 14:13:49;;;;;;;3.55;2.40;;;31.20;47.80;;;;;;5119966;27;21025;-77
2022/06/20 14:16:22;;;;;;;4.18;2.10;;;31.60;47.60;;;;;;5094840;28;20185;-77
2022/06/20 14:18:56;;;;;;;6.72;2.10;;;31.60;47.80;;;;;;5098598;28;20236;-77
2022/06/20 14:33:29;;;;;;;4.55;2.72;;;31.50;47.60;;;;;;4997085;28;20624;-76
2022/06/20 14:36:03;;;;;;;7.93;3.45;;;32.00;48.30;;;;;;4982029;28;20192;-76
2022/06/20 14:38:37;;;;;;;3.88;2.00;;;32.00;48.60;;;;;;4977666;28;21980;-76
2022/06/20 14:41:39;;;;;;;2.72;2.13;;;32.00;48.50;;;;;;4971823;28;20192;-76
2022/06/20 14:44:08;;;;;;;6.65;1.90;;;32.00;48.60;;;;;;4974184;28;20265;-77
2022/06/20 14:46:50;;;;;;;5.05;1.77;;;31.90;48.40;;;;;;4986972;28;20189;-76
2022/06/20 14:49:26;;;;;;;2.28;1.85;;;31.90;48.30;;;;;;4968230;28;20212;-76
2022/06/20 14:51:59;;;;;;;2.72;1.88;;;31.90;48.40;;;;;;4979560;28;20220;-75
2022/06/20 14:54:34;;;;;;;5.18;2.10;;;31.80;48.60;;;;;;4975499;28;20188;-76
2022/06/20 14:57:10;;;;;;;3.25;1.83;;;31.70;48.70;;;;;;4979659;28;20289;-76
2022/06/20 14:59:55;;;;;;;3.20;2.10;;;31.60;48.90;;;;;;4971001;28;20197;-77
2022/06/20 15:02:35;;;;;;;3.83;1.98;;;31.50;48.70;;;;;;4967816;28;20202;-78
2022/06/20 15:05:16;;;;;;;4.32;2.17;;;31.50;48.70;;;;;;4981964;28;21003;-78
2022/06/20 15:07:51;;;;;;;4.32;2.10;;;31.40;48.60;;;;;;4974241;28;20192;-78
2022/06/20 15:10:24;;;;;;;2.50;1.95;;;31.30;48.60;;;;;;4980060;28;20193;-77
2022/06/20 15:13:02;;;;;;;2.42;1.70;;;31.30;49.00;;;;;;4981562;28;20878;-77
2022/06/20 15:15:35;;;;;;;3.47;1.52;;;31.10;48.80;;;;;;4969908;28;20541;-77